URY001 SYCJ-SOCA
Flight info
| Callsign | URY001 |
|---|---|
| Flight time | 1h 34m |
| Altitude | FL190 |
| Route | SISEX GEBON GEDAX PAKIR |
| Aircraft | LJ45/M-S/N |
Departure
| Time | 2026-04-27 16:39 |
|---|---|
| Airport | Cheddi Jagan International Airport (SYCJ) |
Arrival
| Time | 2026-04-27 18:13 |
|---|---|
| Airport | Cayenne – Félix Eboué Airport (SOCA) |
| Time | Latitude | Longitude | Altitude | Speed | Heading |
|---|---|---|---|---|---|
| 2026-04-27 16:13 | 6.50376 | -58.25244 | 99 ft | 0 kts | 316° |
| 2026-04-27 16:25 | 6.50360 | -58.25228 | 99 ft | 3 kts | 316° |
| 2026-04-27 16:25 | 6.50348 | -58.25217 | 99 ft | 0 kts | 316° |
| 2026-04-27 16:32 | 6.50349 | -58.25217 | 99 ft | 0 kts | 316° |
| 2026-04-27 16:33 | 6.50383 | -58.25201 | 99 ft | 6 kts | 44° |
| 2026-04-27 16:33 | 6.50417 | -58.25168 | 99 ft | 7 kts | 44° |
| 2026-04-27 16:33 | 6.50447 | -58.25125 | 99 ft | 8 kts | 72° |
| 2026-04-27 16:33 | 6.50446 | -58.25074 | 99 ft | 7 kts | 106° |
| 2026-04-27 16:34 | 6.50437 | -58.25035 | 99 ft | 5 kts | 89° |
| 2026-04-27 16:34 | 6.50446 | -58.25009 | 99 ft | 3 kts | 54° |
| 2026-04-27 16:34 | 6.50456 | -58.24996 | 99 ft | 1 kts | 48° |
| 2026-04-27 16:34 | 6.50459 | -58.24992 | 99 ft | 0 kts | 48° |
| 2026-04-27 16:35 | 6.50460 | -58.24992 | 99 ft | 0 kts | 48° |
| 2026-04-27 16:35 | 6.50475 | -58.24975 | 99 ft | 3 kts | 48° |
| 2026-04-27 16:36 | 6.50492 | -58.24956 | 99 ft | 4 kts | 48° |
| 2026-04-27 16:36 | 6.50515 | -58.24931 | 99 ft | 6 kts | 47° |
| 2026-04-27 16:36 | 6.50545 | -58.24900 | 99 ft | 7 kts | 42° |
| 2026-04-27 16:36 | 6.50582 | -58.24864 | 99 ft | 8 kts | 45° |
| 2026-04-27 16:37 | 6.50625 | -58.24820 | 99 ft | 9 kts | 45° |
| 2026-04-27 16:37 | 6.50670 | -58.24767 | 99 ft | 11 kts | 59° |
| 2026-04-27 16:37 | 6.50679 | -58.24694 | 99 ft | 10 kts | 108° |
| 2026-04-27 16:37 | 6.50641 | -58.24639 | 99 ft | 9 kts | 165° |
| 2026-04-27 16:38 | 6.50599 | -58.24666 | 99 ft | 0 kts | 225° |
| 2026-04-27 16:38 | 6.50599 | -58.24667 | 99 ft | 0 kts | 225° |
| 2026-04-27 16:38 | 6.50434 | -58.24836 | 99 ft | 72 kts | 225° |
| 2026-04-27 16:38 | 6.49889 | -58.25398 | 99 ft | 152 kts | 225° |
| 2026-04-27 16:39 | 6.49052 | -58.26244 | 798 ft | 168 kts | 223° |
| 2026-04-27 16:39 | 6.48272 | -58.27045 | 2032 ft | 168 kts | 223° |
| 2026-04-27 16:39 | 6.47326 | -58.28009 | 2495 ft | 216 kts | 223° |
| 2026-04-27 16:39 | 6.46300 | -58.29058 | 3970 ft | 195 kts | 223° |
| 2026-04-27 16:40 | 6.45393 | -58.30003 | 4868 ft | 195 kts | 223° |
| 2026-04-27 16:40 | 6.44443 | -58.31010 | 5127 ft | 199 kts | 226° |
| 2026-04-27 16:40 | 6.43672 | -58.32140 | 5557 ft | 194 kts | 239° |
| 2026-04-27 16:40 | 6.43108 | -58.33375 | 5805 ft | 199 kts | 247° |
| 2026-04-27 16:41 | 6.42647 | -58.34724 | 6027 ft | 210 kts | 251° |
| 2026-04-27 16:41 | 6.42214 | -58.36131 | 6455 ft | 212 kts | 252° |
| 2026-04-27 16:41 | 6.41809 | -58.37533 | 6879 ft | 207 kts | 252° |
| 2026-04-27 16:41 | 6.41420 | -58.38946 | 7046 ft | 215 kts | 253° |
| 2026-04-27 16:42 | 6.41024 | -58.40424 | 7195 ft | 222 kts | 253° |
| 2026-04-27 16:42 | 6.40634 | -58.41908 | 7538 ft | 217 kts | 254° |
| 2026-04-27 16:42 | 6.40178 | -58.43374 | 7958 ft | 229 kts | 240° |
| 2026-04-27 16:42 | 6.39106 | -58.44561 | 8443 ft | 236 kts | 208° |
| 2026-04-27 16:43 | 6.37553 | -58.45047 | 8921 ft | 239 kts | 178° |
| 2026-04-27 16:43 | 6.35952 | -58.44679 | 9390 ft | 238 kts | 148° |
| 2026-04-27 16:43 | 6.34765 | -58.43559 | 9846 ft | 237 kts | 120° |
| 2026-04-27 16:43 | 6.34303 | -58.42000 | 10306 ft | 235 kts | 94° |
| 2026-04-27 16:44 | 6.34368 | -58.40371 | 10772 ft | 235 kts | 85° |
| 2026-04-27 16:44 | 6.34574 | -58.38748 | 11222 ft | 235 kts | 83° |
| 2026-04-27 16:44 | 6.34813 | -58.37125 | 11670 ft | 236 kts | 83° |
| 2026-04-27 16:44 | 6.35058 | -58.35493 | 12119 ft | 237 kts | 83° |
| 2026-04-27 16:45 | 6.35301 | -58.33844 | 12572 ft | 239 kts | 83° |
| 2026-04-27 16:45 | 6.35539 | -58.32190 | 13022 ft | 241 kts | 83° |
| 2026-04-27 16:45 | 6.35773 | -58.30515 | 13474 ft | 243 kts | 84° |
| 2026-04-27 16:45 | 6.36001 | -58.28826 | 13926 ft | 245 kts | 84° |
| 2026-04-27 16:46 | 6.36224 | -58.27122 | 14377 ft | 248 kts | 84° |
| 2026-04-27 16:46 | 6.36441 | -58.25402 | 14829 ft | 250 kts | 84° |
| 2026-04-27 16:46 | 6.36653 | -58.23665 | 15281 ft | 252 kts | 85° |
| 2026-04-27 16:46 | 6.36858 | -58.21907 | 15733 ft | 255 kts | 85° |
| 2026-04-27 16:47 | 6.37056 | -58.20136 | 16184 ft | 257 kts | 85° |
| 2026-04-27 16:47 | 6.37248 | -58.18340 | 16637 ft | 262 kts | 86° |
| 2026-04-27 16:47 | 6.37435 | -58.16504 | 17095 ft | 267 kts | 86° |
| 2026-04-27 16:47 | 6.37615 | -58.14634 | 17550 ft | 272 kts | 86° |
| 2026-04-27 16:48 | 6.37788 | -58.12734 | 18004 ft | 275 kts | 86° |
| 2026-04-27 16:48 | 6.37953 | -58.10808 | 18456 ft | 279 kts | 87° |
| 2026-04-27 16:48 | 6.38109 | -58.08860 | 18841 ft | 284 kts | 87° |
| 2026-04-27 16:49 | 6.38393 | -58.04875 | 19015 ft | 288 kts | 88° |
| 2026-04-27 16:49 | 6.38519 | -58.02859 | 19015 ft | 289 kts | 88° |
| 2026-04-27 16:49 | 6.38630 | -58.00843 | 19014 ft | 290 kts | 89° |
| 2026-04-27 16:49 | 6.38681 | -57.98819 | 19013 ft | 290 kts | 92° |
| 2026-04-27 16:50 | 6.38614 | -57.96800 | 19020 ft | 290 kts | 95° |
| 2026-04-27 16:50 | 6.38423 | -57.94784 | 19023 ft | 290 kts | 98° |
| 2026-04-27 16:50 | 6.38120 | -57.92784 | 19021 ft | 290 kts | 101° |
| 2026-04-27 16:50 | 6.37728 | -57.90797 | 19020 ft | 290 kts | 103° |
| 2026-04-27 16:51 | 6.37268 | -57.88830 | 19020 ft | 290 kts | 105° |
| 2026-04-27 16:51 | 6.36755 | -57.86877 | 19020 ft | 290 kts | 107° |
| 2026-04-27 16:51 | 6.36203 | -57.84937 | 19020 ft | 289 kts | 107° |
| 2026-04-27 16:51 | 6.35622 | -57.83002 | 19020 ft | 289 kts | 108° |
| 2026-04-27 16:52 | 6.35021 | -57.81078 | 19020 ft | 289 kts | 109° |
| 2026-04-27 16:52 | 6.34405 | -57.79160 | 19020 ft | 289 kts | 109° |
| 2026-04-27 16:52 | 6.33778 | -57.77247 | 19020 ft | 289 kts | 109° |
| 2026-04-27 16:52 | 6.33143 | -57.75337 | 19020 ft | 289 kts | 109° |
| 2026-04-27 16:53 | 6.32500 | -57.73422 | 19020 ft | 289 kts | 110° |
| 2026-04-27 16:53 | 6.31855 | -57.71516 | 19020 ft | 289 kts | 110° |
| 2026-04-27 16:53 | 6.31206 | -57.69612 | 19022 ft | 289 kts | 110° |
| 2026-04-27 16:53 | 6.30556 | -57.67709 | 19022 ft | 288 kts | 110° |
| 2026-04-27 16:54 | 6.29907 | -57.65812 | 19021 ft | 288 kts | 110° |
| 2026-04-27 16:54 | 6.29256 | -57.63918 | 19022 ft | 287 kts | 110° |
| 2026-04-27 16:54 | 6.28606 | -57.62026 | 19021 ft | 287 kts | 110° |
| 2026-04-27 16:54 | 6.27955 | -57.60136 | 19022 ft | 287 kts | 110° |
| 2026-04-27 16:55 | 6.27304 | -57.58246 | 19022 ft | 287 kts | 110° |
| 2026-04-27 16:55 | 6.26653 | -57.56356 | 19022 ft | 287 kts | 110° |
| 2026-04-27 16:55 | 6.26001 | -57.54468 | 19022 ft | 287 kts | 110° |
| 2026-04-27 16:55 | 6.25350 | -57.52581 | 19022 ft | 287 kts | 110° |
| 2026-04-27 16:56 | 6.24697 | -57.50689 | 19022 ft | 287 kts | 110° |
| 2026-04-27 16:56 | 6.24046 | -57.48802 | 19022 ft | 287 kts | 110° |
| 2026-04-27 16:56 | 6.23394 | -57.46915 | 19022 ft | 287 kts | 110° |
| 2026-04-27 16:56 | 6.22742 | -57.45027 | 19022 ft | 287 kts | 110° |
| 2026-04-27 16:57 | 6.22090 | -57.43140 | 19022 ft | 287 kts | 110° |
| 2026-04-27 16:57 | 6.21438 | -57.41253 | 19025 ft | 287 kts | 110° |
| 2026-04-27 16:57 | 6.20786 | -57.39365 | 19027 ft | 287 kts | 110° |
| 2026-04-27 16:57 | 6.20130 | -57.37469 | 19028 ft | 287 kts | 110° |
| 2026-04-27 16:58 | 6.19477 | -57.35578 | 19027 ft | 287 kts | 110° |
| 2026-04-27 16:58 | 6.18823 | -57.33686 | 19027 ft | 287 kts | 110° |
| 2026-04-27 16:58 | 6.18169 | -57.31795 | 19027 ft | 287 kts | 110° |
| 2026-04-27 16:58 | 6.17514 | -57.29902 | 19027 ft | 287 kts | 110° |
| 2026-04-27 16:59 | 6.16860 | -57.28010 | 19027 ft | 288 kts | 110° |
| 2026-04-27 16:59 | 6.16206 | -57.26118 | 19027 ft | 288 kts | 110° |
| 2026-04-27 16:59 | 6.15549 | -57.24219 | 19027 ft | 288 kts | 110° |
| 2026-04-27 16:59 | 6.14896 | -57.22331 | 19027 ft | 288 kts | 110° |
| 2026-04-27 17:00 | 6.13803 | -57.19172 | 19027 ft | 288 kts | 110° |
| 2026-04-27 17:00 | 6.12929 | -57.16647 | 19027 ft | 288 kts | 110° |
| 2026-04-27 17:00 | 6.12274 | -57.14754 | 19027 ft | 288 kts | 110° |
| 2026-04-27 17:01 | 6.11619 | -57.12862 | 19023 ft | 287 kts | 110° |
| 2026-04-27 17:01 | 6.10964 | -57.10971 | 19022 ft | 287 kts | 110° |
| 2026-04-27 17:01 | 6.10310 | -57.09083 | 19022 ft | 287 kts | 110° |
| 2026-04-27 17:01 | 6.09655 | -57.07191 | 19022 ft | 287 kts | 110° |
| 2026-04-27 17:02 | 6.09001 | -57.05301 | 19022 ft | 287 kts | 110° |
| 2026-04-27 17:02 | 6.08347 | -57.03413 | 19022 ft | 287 kts | 110° |
| 2026-04-27 17:02 | 6.07695 | -57.01516 | 19022 ft | 287 kts | 109° |
| 2026-04-27 17:02 | 6.07050 | -56.99625 | 19022 ft | 287 kts | 109° |
| 2026-04-27 17:03 | 6.06406 | -56.97733 | 19022 ft | 287 kts | 109° |
| 2026-04-27 17:03 | 6.05763 | -56.95841 | 19022 ft | 287 kts | 109° |
| 2026-04-27 17:03 | 6.05121 | -56.93949 | 19022 ft | 287 kts | 109° |
| 2026-04-27 17:03 | 6.04480 | -56.92055 | 19022 ft | 287 kts | 109° |
| 2026-04-27 17:04 | 6.03838 | -56.90163 | 19022 ft | 287 kts | 109° |
| 2026-04-27 17:04 | 6.03197 | -56.88269 | 19022 ft | 287 kts | 109° |
| 2026-04-27 17:04 | 6.02553 | -56.86370 | 19024 ft | 287 kts | 109° |
| 2026-04-27 17:04 | 6.01912 | -56.84477 | 19025 ft | 287 kts | 109° |
| 2026-04-27 17:05 | 6.01273 | -56.82588 | 19026 ft | 287 kts | 109° |
| 2026-04-27 17:05 | 6.00629 | -56.80689 | 19025 ft | 287 kts | 109° |
| 2026-04-27 17:05 | 5.99988 | -56.78795 | 19025 ft | 287 kts | 109° |
| 2026-04-27 17:05 | 5.99347 | -56.76901 | 19025 ft | 287 kts | 109° |
| 2026-04-27 17:06 | 5.98706 | -56.75008 | 19025 ft | 287 kts | 109° |
| 2026-04-27 17:06 | 5.98064 | -56.73115 | 19025 ft | 287 kts | 109° |
| 2026-04-27 17:06 | 5.97423 | -56.71222 | 19025 ft | 287 kts | 109° |
| 2026-04-27 17:06 | 5.96781 | -56.69327 | 19025 ft | 287 kts | 109° |
| 2026-04-27 17:07 | 5.96140 | -56.67435 | 19025 ft | 287 kts | 109° |
| 2026-04-27 17:07 | 5.95499 | -56.65542 | 19025 ft | 287 kts | 109° |
| 2026-04-27 17:07 | 5.94857 | -56.63649 | 19025 ft | 287 kts | 109° |
| 2026-04-27 17:07 | 5.94216 | -56.61756 | 19025 ft | 287 kts | 109° |
| 2026-04-27 17:08 | 5.93574 | -56.59863 | 19025 ft | 287 kts | 109° |
| 2026-04-27 17:08 | 5.92930 | -56.57965 | 19022 ft | 287 kts | 109° |
| 2026-04-27 17:08 | 5.92289 | -56.56076 | 19022 ft | 287 kts | 109° |
| 2026-04-27 17:08 | 5.91649 | -56.54187 | 19022 ft | 286 kts | 109° |
| 2026-04-27 17:09 | 5.91009 | -56.52300 | 19022 ft | 286 kts | 109° |
| 2026-04-27 17:09 | 5.90369 | -56.50413 | 19022 ft | 286 kts | 109° |
| 2026-04-27 17:09 | 5.89729 | -56.48527 | 19022 ft | 286 kts | 109° |
| 2026-04-27 17:09 | 5.89089 | -56.46640 | 19022 ft | 286 kts | 109° |
| 2026-04-27 17:10 | 5.88449 | -56.44755 | 19022 ft | 286 kts | 109° |
| 2026-04-27 17:10 | 5.87807 | -56.42863 | 19022 ft | 286 kts | 109° |
| 2026-04-27 17:10 | 5.87168 | -56.40980 | 19022 ft | 286 kts | 109° |
| 2026-04-27 17:10 | 5.86528 | -56.39095 | 19022 ft | 286 kts | 109° |
| 2026-04-27 17:11 | 5.85888 | -56.37210 | 19022 ft | 286 kts | 109° |
| 2026-04-27 17:11 | 5.84607 | -56.33436 | 19022 ft | 286 kts | 109° |
| 2026-04-27 17:11 | 5.83965 | -56.31548 | 19018 ft | 286 kts | 109° |
| 2026-04-27 17:12 | 5.82686 | -56.27784 | 19011 ft | 285 kts | 109° |
| 2026-04-27 17:12 | 5.82048 | -56.25905 | 19010 ft | 285 kts | 109° |
| 2026-04-27 17:12 | 5.81410 | -56.24027 | 19011 ft | 285 kts | 109° |
| 2026-04-27 17:13 | 5.80770 | -56.22145 | 19011 ft | 285 kts | 109° |
| 2026-04-27 17:13 | 5.80133 | -56.20270 | 19011 ft | 285 kts | 109° |
| 2026-04-27 17:13 | 5.79493 | -56.18387 | 19011 ft | 285 kts | 109° |
| 2026-04-27 17:13 | 5.78855 | -56.16510 | 19011 ft | 285 kts | 109° |
| 2026-04-27 17:14 | 5.78217 | -56.14633 | 19011 ft | 285 kts | 109° |
| 2026-04-27 17:14 | 5.77580 | -56.12757 | 19011 ft | 285 kts | 109° |
| 2026-04-27 17:14 | 5.76942 | -56.10880 | 19011 ft | 285 kts | 109° |
| 2026-04-27 17:14 | 5.76303 | -56.09001 | 19011 ft | 285 kts | 109° |
| 2026-04-27 17:15 | 5.75664 | -56.07125 | 19011 ft | 285 kts | 109° |
| 2026-04-27 17:15 | 5.75026 | -56.05249 | 19011 ft | 285 kts | 109° |
| 2026-04-27 17:15 | 5.74388 | -56.03372 | 19004 ft | 285 kts | 109° |
| 2026-04-27 17:15 | 5.73749 | -56.01495 | 19000 ft | 285 kts | 109° |
| 2026-04-27 17:16 | 5.73110 | -55.99619 | 19000 ft | 285 kts | 109° |
| 2026-04-27 17:16 | 5.72470 | -55.97737 | 19000 ft | 285 kts | 109° |
| 2026-04-27 17:16 | 5.71831 | -55.95861 | 19000 ft | 285 kts | 109° |
| 2026-04-27 17:16 | 5.71192 | -55.93983 | 19000 ft | 285 kts | 109° |
| 2026-04-27 17:17 | 5.70554 | -55.92107 | 19000 ft | 285 kts | 109° |
| 2026-04-27 17:17 | 5.69915 | -55.90231 | 19000 ft | 285 kts | 109° |
| 2026-04-27 17:17 | 5.69276 | -55.88355 | 19000 ft | 285 kts | 109° |
| 2026-04-27 17:18 | 5.67994 | -55.84605 | 19000 ft | 285 kts | 109° |
| 2026-04-27 17:18 | 5.67319 | -55.82742 | 19000 ft | 285 kts | 110° |
| 2026-04-27 17:18 | 5.66621 | -55.80888 | 19000 ft | 285 kts | 111° |
| 2026-04-27 17:18 | 5.65905 | -55.79032 | 19000 ft | 285 kts | 111° |
| 2026-04-27 17:19 | 5.65183 | -55.77187 | 19000 ft | 285 kts | 111° |
| 2026-04-27 17:19 | 5.64456 | -55.75343 | 19005 ft | 285 kts | 111° |
| 2026-04-27 17:19 | 5.63724 | -55.73499 | 19007 ft | 285 kts | 111° |
| 2026-04-27 17:19 | 5.62990 | -55.71655 | 19007 ft | 285 kts | 111° |
| 2026-04-27 17:20 | 5.62252 | -55.69804 | 19007 ft | 286 kts | 111° |
| 2026-04-27 17:20 | 5.61515 | -55.67959 | 19007 ft | 286 kts | 111° |
| 2026-04-27 17:20 | 5.60778 | -55.66113 | 19007 ft | 286 kts | 111° |
| 2026-04-27 17:20 | 5.60040 | -55.64268 | 19007 ft | 286 kts | 111° |
| 2026-04-27 17:21 | 5.59302 | -55.62422 | 19007 ft | 286 kts | 111° |
| 2026-04-27 17:21 | 5.58564 | -55.60576 | 19007 ft | 286 kts | 111° |
| 2026-04-27 17:21 | 5.57825 | -55.58730 | 19007 ft | 286 kts | 111° |
| 2026-04-27 17:21 | 5.57085 | -55.56882 | 19007 ft | 286 kts | 111° |
| 2026-04-27 17:22 | 5.56346 | -55.55031 | 19007 ft | 286 kts | 111° |
| 2026-04-27 17:22 | 5.55656 | -55.53168 | 19007 ft | 286 kts | 109° |
| 2026-04-27 17:22 | 5.55010 | -55.51284 | 19007 ft | 286 kts | 108° |
| 2026-04-27 17:22 | 5.54396 | -55.49398 | 19008 ft | 286 kts | 108° |
| 2026-04-27 17:23 | 5.53796 | -55.47495 | 19009 ft | 286 kts | 108° |
| 2026-04-27 17:23 | 5.53209 | -55.45596 | 19009 ft | 286 kts | 107° |
| 2026-04-27 17:23 | 5.52628 | -55.43695 | 19009 ft | 286 kts | 107° |
| 2026-04-27 17:23 | 5.52051 | -55.41791 | 19009 ft | 286 kts | 107° |
| 2026-04-27 17:24 | 5.51477 | -55.39887 | 19009 ft | 286 kts | 107° |
| 2026-04-27 17:24 | 5.50904 | -55.37983 | 19009 ft | 286 kts | 107° |
| 2026-04-27 17:24 | 5.50333 | -55.36080 | 19009 ft | 286 kts | 107° |
| 2026-04-27 17:24 | 5.49761 | -55.34175 | 19009 ft | 286 kts | 107° |
| 2026-04-27 17:25 | 5.49191 | -55.32271 | 19009 ft | 286 kts | 107° |
| 2026-04-27 17:25 | 5.48620 | -55.30367 | 19009 ft | 286 kts | 107° |
| 2026-04-27 17:25 | 5.48047 | -55.28456 | 19009 ft | 286 kts | 107° |
| 2026-04-27 17:25 | 5.47478 | -55.26556 | 19009 ft | 286 kts | 107° |
| 2026-04-27 17:26 | 5.46906 | -55.24645 | 19009 ft | 286 kts | 107° |
| 2026-04-27 17:26 | 5.46335 | -55.22741 | 19009 ft | 286 kts | 107° |
| 2026-04-27 17:26 | 5.45784 | -55.20830 | 19012 ft | 286 kts | 105° |
| 2026-04-27 17:26 | 5.45280 | -55.18904 | 19013 ft | 286 kts | 104° |
| 2026-04-27 17:27 | 5.44805 | -55.16973 | 19012 ft | 286 kts | 104° |
| 2026-04-27 17:27 | 5.44346 | -55.15038 | 19013 ft | 286 kts | 104° |
| 2026-04-27 17:27 | 5.43896 | -55.13100 | 19013 ft | 286 kts | 103° |
| 2026-04-27 17:27 | 5.43452 | -55.11158 | 19013 ft | 286 kts | 103° |
| 2026-04-27 17:28 | 5.43013 | -55.09219 | 19013 ft | 286 kts | 103° |
| 2026-04-27 17:28 | 5.42576 | -55.07279 | 19013 ft | 286 kts | 103° |
| 2026-04-27 17:28 | 5.41706 | -55.03398 | 19013 ft | 286 kts | 103° |
| 2026-04-27 17:29 | 5.41272 | -55.01457 | 19013 ft | 286 kts | 103° |
| 2026-04-27 17:29 | 5.40839 | -54.99517 | 19013 ft | 286 kts | 103° |
| 2026-04-27 17:29 | 5.40404 | -54.97569 | 19013 ft | 286 kts | 103° |
| 2026-04-27 17:29 | 5.39973 | -54.95633 | 19013 ft | 286 kts | 103° |
| 2026-04-27 17:30 | 5.39539 | -54.93685 | 19013 ft | 286 kts | 103° |
| 2026-04-27 17:30 | 5.38673 | -54.89803 | 19014 ft | 286 kts | 103° |
| 2026-04-27 17:30 | 5.38241 | -54.87861 | 19014 ft | 286 kts | 103° |
| 2026-04-27 17:31 | 5.37808 | -54.85919 | 19014 ft | 286 kts | 103° |
| 2026-04-27 17:31 | 5.37374 | -54.83974 | 19014 ft | 286 kts | 103° |
| 2026-04-27 17:31 | 5.36941 | -54.82032 | 19014 ft | 286 kts | 103° |
| 2026-04-27 17:31 | 5.36507 | -54.80087 | 19014 ft | 286 kts | 103° |
| 2026-04-27 17:32 | 5.36074 | -54.78145 | 19014 ft | 286 kts | 103° |
| 2026-04-27 17:32 | 5.35208 | -54.74260 | 19014 ft | 286 kts | 103° |
| 2026-04-27 17:32 | 5.34775 | -54.72318 | 19014 ft | 286 kts | 103° |
| 2026-04-27 17:33 | 5.34341 | -54.70376 | 19014 ft | 286 kts | 103° |
| 2026-04-27 17:33 | 5.33908 | -54.68434 | 19014 ft | 286 kts | 103° |
| 2026-04-27 17:33 | 5.33473 | -54.66485 | 19014 ft | 286 kts | 103° |
| 2026-04-27 17:33 | 5.33040 | -54.64547 | 19010 ft | 286 kts | 103° |
| 2026-04-27 17:34 | 5.32607 | -54.62606 | 19006 ft | 286 kts | 103° |
| 2026-04-27 17:34 | 5.32173 | -54.60662 | 19005 ft | 285 kts | 103° |
| 2026-04-27 17:34 | 5.31740 | -54.58724 | 19005 ft | 285 kts | 103° |
| 2026-04-27 17:34 | 5.31308 | -54.56787 | 19005 ft | 285 kts | 103° |
| 2026-04-27 17:35 | 5.30875 | -54.54849 | 19005 ft | 285 kts | 103° |
| 2026-04-27 17:35 | 5.30443 | -54.52913 | 19005 ft | 285 kts | 103° |
| 2026-04-27 17:35 | 5.30011 | -54.50977 | 19005 ft | 285 kts | 103° |
| 2026-04-27 17:35 | 5.29579 | -54.49041 | 19005 ft | 285 kts | 103° |
| 2026-04-27 17:36 | 5.29147 | -54.47104 | 19005 ft | 285 kts | 103° |
| 2026-04-27 17:36 | 5.28716 | -54.45169 | 19005 ft | 285 kts | 103° |
| 2026-04-27 17:36 | 5.28284 | -54.43233 | 19005 ft | 285 kts | 103° |
| 2026-04-27 17:36 | 5.27852 | -54.41296 | 19005 ft | 285 kts | 103° |
| 2026-04-27 17:37 | 5.27420 | -54.39361 | 19005 ft | 285 kts | 103° |
| 2026-04-27 17:37 | 5.26989 | -54.37425 | 19005 ft | 285 kts | 103° |
| 2026-04-27 17:37 | 5.26558 | -54.35491 | 19010 ft | 285 kts | 103° |
| 2026-04-27 17:37 | 5.26126 | -54.33557 | 19011 ft | 285 kts | 103° |
| 2026-04-27 17:38 | 5.25694 | -54.31624 | 19011 ft | 284 kts | 103° |
| 2026-04-27 17:38 | 5.25266 | -54.29718 | 19006 ft | 278 kts | 103° |
| 2026-04-27 17:38 | 5.24846 | -54.27845 | 19006 ft | 273 kts | 103° |
| 2026-04-27 17:38 | 5.24431 | -54.25998 | 18794 ft | 273 kts | 103° |
| 2026-04-27 17:39 | 5.24017 | -54.24158 | 18522 ft | 269 kts | 103° |
| 2026-04-27 17:39 | 5.23608 | -54.22337 | 18268 ft | 267 kts | 103° |
| 2026-04-27 17:39 | 5.23202 | -54.20532 | 18016 ft | 265 kts | 103° |
| 2026-04-27 17:39 | 5.22797 | -54.18736 | 17766 ft | 264 kts | 103° |
| 2026-04-27 17:40 | 5.22395 | -54.16951 | 17515 ft | 262 kts | 103° |
| 2026-04-27 17:40 | 5.21996 | -54.15174 | 17265 ft | 261 kts | 103° |
| 2026-04-27 17:40 | 5.21597 | -54.13407 | 17015 ft | 260 kts | 103° |
| 2026-04-27 17:40 | 5.21199 | -54.11641 | 16764 ft | 259 kts | 103° |
| 2026-04-27 17:41 | 5.20804 | -54.09888 | 16514 ft | 258 kts | 103° |
| 2026-04-27 17:41 | 5.20411 | -54.08142 | 16264 ft | 257 kts | 103° |
| 2026-04-27 17:41 | 5.20019 | -54.06404 | 16013 ft | 256 kts | 103° |
| 2026-04-27 17:41 | 5.19628 | -54.04669 | 15761 ft | 255 kts | 103° |
| 2026-04-27 17:42 | 5.19241 | -54.02949 | 15513 ft | 254 kts | 103° |
| 2026-04-27 17:42 | 5.18852 | -54.01223 | 15225 ft | 253 kts | 103° |
| 2026-04-27 17:42 | 5.18466 | -53.99512 | 14925 ft | 252 kts | 103° |
| 2026-04-27 17:42 | 5.18081 | -53.97806 | 14624 ft | 251 kts | 103° |
| 2026-04-27 17:43 | 5.17699 | -53.96108 | 14324 ft | 250 kts | 103° |
| 2026-04-27 17:43 | 5.17316 | -53.94413 | 14023 ft | 248 kts | 103° |
| 2026-04-27 17:43 | 5.16938 | -53.92733 | 13723 ft | 247 kts | 103° |
| 2026-04-27 17:43 | 5.16560 | -53.91061 | 13422 ft | 246 kts | 103° |
| 2026-04-27 17:44 | 5.16185 | -53.89400 | 13121 ft | 244 kts | 102° |
| 2026-04-27 17:44 | 5.15812 | -53.87748 | 12820 ft | 243 kts | 102° |
| 2026-04-27 17:44 | 5.15442 | -53.86105 | 12519 ft | 241 kts | 102° |
| 2026-04-27 17:44 | 5.15073 | -53.84472 | 12219 ft | 240 kts | 102° |
| 2026-04-27 17:45 | 5.14706 | -53.82849 | 11918 ft | 239 kts | 102° |
| 2026-04-27 17:45 | 5.14341 | -53.81229 | 11616 ft | 237 kts | 102° |
| 2026-04-27 17:45 | 5.13978 | -53.79624 | 11314 ft | 236 kts | 102° |
| 2026-04-27 17:45 | 5.13618 | -53.78026 | 11014 ft | 235 kts | 102° |
| 2026-04-27 17:46 | 5.13259 | -53.76436 | 10713 ft | 234 kts | 102° |
| 2026-04-27 17:46 | 5.12901 | -53.74855 | 10412 ft | 233 kts | 102° |
| 2026-04-27 17:46 | 5.12546 | -53.73280 | 10111 ft | 231 kts | 102° |
| 2026-04-27 17:46 | 5.12192 | -53.71715 | 9827 ft | 230 kts | 102° |
| 2026-04-27 17:47 | 5.11841 | -53.70161 | 9564 ft | 229 kts | 102° |
| 2026-04-27 17:47 | 5.11608 | -53.69130 | 9381 ft | 228 kts | 102° |
| 2026-04-27 17:47 | 5.11144 | -53.67077 | 9013 ft | 226 kts | 102° |
| 2026-04-27 17:47 | 5.10797 | -53.65541 | 8737 ft | 225 kts | 101° |
| 2026-04-27 17:48 | 5.10454 | -53.64022 | 8463 ft | 224 kts | 101° |
| 2026-04-27 17:48 | 5.10111 | -53.62508 | 8188 ft | 223 kts | 101° |
| 2026-04-27 17:48 | 5.09770 | -53.60999 | 7912 ft | 221 kts | 101° |
| 2026-04-27 17:48 | 5.09431 | -53.59501 | 7637 ft | 220 kts | 101° |
| 2026-04-27 17:49 | 5.09094 | -53.58012 | 7362 ft | 219 kts | 101° |
| 2026-04-27 17:49 | 5.08759 | -53.56528 | 7086 ft | 218 kts | 101° |
| 2026-04-27 17:49 | 5.08425 | -53.55054 | 6810 ft | 217 kts | 101° |
| 2026-04-27 17:49 | 5.08094 | -53.53587 | 6534 ft | 215 kts | 101° |
| 2026-04-27 17:50 | 5.07764 | -53.52130 | 6257 ft | 214 kts | 101° |
| 2026-04-27 17:50 | 5.07108 | -53.49229 | 5705 ft | 213 kts | 101° |
| 2026-04-27 17:50 | 5.06781 | -53.47785 | 5429 ft | 213 kts | 101° |
| 2026-04-27 17:51 | 5.06455 | -53.46346 | 5178 ft | 211 kts | 101° |
| 2026-04-27 17:51 | 5.06131 | -53.44913 | 4953 ft | 211 kts | 101° |
| 2026-04-27 17:51 | 5.05807 | -53.43482 | 4728 ft | 211 kts | 101° |
| 2026-04-27 17:51 | 5.05483 | -53.42050 | 4503 ft | 211 kts | 101° |
| 2026-04-27 17:52 | 5.05160 | -53.40622 | 4277 ft | 210 kts | 101° |
| 2026-04-27 17:52 | 5.04837 | -53.39196 | 4050 ft | 210 kts | 101° |
| 2026-04-27 17:52 | 5.04514 | -53.37769 | 3824 ft | 210 kts | 101° |
| 2026-04-27 17:52 | 5.04192 | -53.36348 | 3599 ft | 209 kts | 101° |
| 2026-04-27 17:53 | 5.03871 | -53.34930 | 3374 ft | 209 kts | 101° |
| 2026-04-27 17:53 | 5.03550 | -53.33512 | 3148 ft | 209 kts | 101° |
| 2026-04-27 17:53 | 5.03229 | -53.32097 | 2922 ft | 209 kts | 101° |
| 2026-04-27 17:53 | 5.02908 | -53.30683 | 2696 ft | 208 kts | 101° |
| 2026-04-27 17:54 | 5.02589 | -53.29271 | 2470 ft | 208 kts | 101° |
| 2026-04-27 17:54 | 5.02269 | -53.27862 | 2275 ft | 207 kts | 101° |
| 2026-04-27 17:54 | 5.01951 | -53.26458 | 2159 ft | 207 kts | 101° |
| 2026-04-27 17:54 | 5.01632 | -53.25053 | 2117 ft | 206 kts | 101° |
| 2026-04-27 17:55 | 5.01315 | -53.23655 | 2111 ft | 207 kts | 101° |
| 2026-04-27 17:55 | 5.00997 | -53.22252 | 2107 ft | 207 kts | 101° |
| 2026-04-27 17:55 | 5.00678 | -53.20845 | 2107 ft | 207 kts | 101° |
| 2026-04-27 17:55 | 5.00361 | -53.19445 | 2107 ft | 207 kts | 101° |
| 2026-04-27 17:56 | 5.00041 | -53.18037 | 2106 ft | 207 kts | 101° |
| 2026-04-27 17:56 | 4.99723 | -53.16634 | 2108 ft | 207 kts | 101° |
| 2026-04-27 17:56 | 4.99404 | -53.15230 | 2106 ft | 207 kts | 101° |
| 2026-04-27 17:56 | 4.99086 | -53.13824 | 2107 ft | 207 kts | 101° |
| 2026-04-27 17:57 | 4.98767 | -53.12420 | 2108 ft | 207 kts | 101° |
| 2026-04-27 17:57 | 4.98448 | -53.11016 | 2106 ft | 207 kts | 101° |
| 2026-04-27 17:57 | 4.98129 | -53.09612 | 2108 ft | 207 kts | 101° |
| 2026-04-27 17:57 | 4.97811 | -53.08207 | 2106 ft | 207 kts | 101° |
| 2026-04-27 17:58 | 4.97492 | -53.06803 | 2107 ft | 207 kts | 101° |
| 2026-04-27 17:58 | 4.97174 | -53.05399 | 2107 ft | 207 kts | 101° |
| 2026-04-27 17:58 | 4.96854 | -53.03991 | 2106 ft | 207 kts | 101° |
| 2026-04-27 17:58 | 4.96448 | -53.02613 | 2108 ft | 207 kts | 108° |
| 2026-04-27 17:59 | 4.95908 | -53.01270 | 2107 ft | 208 kts | 111° |
| 2026-04-27 17:59 | 4.95315 | -52.99957 | 2107 ft | 208 kts | 113° |
| 2026-04-27 17:59 | 4.94696 | -52.98649 | 2108 ft | 208 kts | 114° |
| 2026-04-27 17:59 | 4.94062 | -52.97345 | 2106 ft | 208 kts | 114° |
| 2026-04-27 18:00 | 4.93423 | -52.96045 | 2106 ft | 209 kts | 114° |
| 2026-04-27 18:00 | 4.92779 | -52.94748 | 2107 ft | 208 kts | 114° |
| 2026-04-27 18:00 | 4.92136 | -52.93455 | 2104 ft | 207 kts | 114° |
| 2026-04-27 18:00 | 4.91507 | -52.92197 | 2092 ft | 198 kts | 114° |
| 2026-04-27 18:01 | 4.90903 | -52.90991 | 2093 ft | 191 kts | 114° |
| 2026-04-27 18:01 | 4.90312 | -52.89810 | 2098 ft | 188 kts | 114° |
| 2026-04-27 18:01 | 4.89733 | -52.88651 | 2100 ft | 185 kts | 114° |
| 2026-04-27 18:01 | 4.89160 | -52.87506 | 2102 ft | 184 kts | 114° |
| 2026-04-27 18:02 | 4.88588 | -52.86363 | 2103 ft | 183 kts | 114° |
| 2026-04-27 18:02 | 4.88020 | -52.85227 | 2104 ft | 182 kts | 114° |
| 2026-04-27 18:02 | 4.87453 | -52.84094 | 2104 ft | 182 kts | 114° |
| 2026-04-27 18:02 | 4.86888 | -52.82968 | 2114 ft | 180 kts | 114° |
| 2026-04-27 18:03 | 4.86326 | -52.81845 | 2106 ft | 181 kts | 114° |
| 2026-04-27 18:03 | 4.85763 | -52.80722 | 2106 ft | 181 kts | 114° |
| 2026-04-27 18:03 | 4.85199 | -52.79597 | 2105 ft | 181 kts | 114° |
| 2026-04-27 18:03 | 4.84635 | -52.78471 | 2105 ft | 181 kts | 114° |
| 2026-04-27 18:04 | 4.84071 | -52.77345 | 2106 ft | 181 kts | 114° |
| 2026-04-27 18:04 | 4.83507 | -52.76220 | 2105 ft | 181 kts | 114° |
| 2026-04-27 18:04 | 4.82942 | -52.75093 | 2105 ft | 181 kts | 114° |
| 2026-04-27 18:04 | 4.82377 | -52.73965 | 2106 ft | 181 kts | 114° |
| 2026-04-27 18:05 | 4.81812 | -52.72839 | 2105 ft | 181 kts | 114° |
| 2026-04-27 18:05 | 4.81247 | -52.71712 | 2104 ft | 181 kts | 114° |
| 2026-04-27 18:05 | 4.80682 | -52.70584 | 2106 ft | 181 kts | 114° |
| 2026-04-27 18:05 | 4.80118 | -52.69459 | 2114 ft | 181 kts | 114° |
| 2026-04-27 18:06 | 4.79553 | -52.68332 | 2113 ft | 181 kts | 114° |
| 2026-04-27 18:06 | 4.78990 | -52.67212 | 2114 ft | 180 kts | 114° |
| 2026-04-27 18:06 | 4.78429 | -52.66092 | 2115 ft | 180 kts | 114° |
| 2026-04-27 18:06 | 4.77867 | -52.64972 | 2114 ft | 180 kts | 114° |
| 2026-04-27 18:07 | 4.77307 | -52.63854 | 2114 ft | 180 kts | 114° |
| 2026-04-27 18:07 | 4.76746 | -52.62736 | 2115 ft | 180 kts | 114° |
| 2026-04-27 18:07 | 4.76188 | -52.61625 | 2110 ft | 179 kts | 114° |
| 2026-04-27 18:07 | 4.75632 | -52.60515 | 2116 ft | 179 kts | 114° |
| 2026-04-27 18:08 | 4.75072 | -52.59398 | 2114 ft | 179 kts | 114° |
| 2026-04-27 18:08 | 4.74514 | -52.58286 | 2115 ft | 180 kts | 114° |
| 2026-04-27 18:08 | 4.73952 | -52.57166 | 2115 ft | 180 kts | 114° |
| 2026-04-27 18:08 | 4.73399 | -52.56048 | 2113 ft | 179 kts | 112° |
| 2026-04-27 18:09 | 4.73251 | -52.54823 | 2102 ft | 184 kts | 81° |
| 2026-04-27 18:09 | 4.73624 | -52.53540 | 2028 ft | 203 kts | 69° |
| 2026-04-27 18:09 | 4.74204 | -52.52191 | 1926 ft | 218 kts | 65° |
| 2026-04-27 18:09 | 4.74865 | -52.50805 | 1882 ft | 216 kts | 64° |
| 2026-04-27 18:10 | 4.75494 | -52.49527 | 1853 ft | 190 kts | 64° |
| 2026-04-27 18:10 | 4.76048 | -52.48412 | 1707 ft | 170 kts | 64° |
| 2026-04-27 18:10 | 4.76559 | -52.47378 | 1520 ft | 165 kts | 64° |
| 2026-04-27 18:10 | 4.77058 | -52.46359 | 1406 ft | 161 kts | 64° |
| 2026-04-27 18:11 | 4.77541 | -52.45370 | 1374 ft | 156 kts | 64° |
| 2026-04-27 18:11 | 4.78012 | -52.44402 | 1361 ft | 154 kts | 64° |
| 2026-04-27 18:11 | 4.78477 | -52.43445 | 1123 ft | 151 kts | 64° |
| 2026-04-27 18:11 | 4.78928 | -52.42516 | 917 ft | 149 kts | 64° |
| 2026-04-27 18:12 | 4.79388 | -52.41569 | 742 ft | 156 kts | 64° |
| 2026-04-27 18:12 | 4.79862 | -52.40590 | 522 ft | 155 kts | 64° |
| 2026-04-27 18:12 | 4.80332 | -52.39621 | 347 ft | 159 kts | 64° |
| 2026-04-27 18:12 | 4.80824 | -52.38606 | 324 ft | 164 kts | 64° |
| 2026-04-27 18:13 | 4.81319 | -52.37585 | 246 ft | 162 kts | 64° |
| 2026-04-27 18:13 | 4.81748 | -52.36599 | 31 ft | 143 kts | 67° |
| 2026-04-27 18:13 | 4.82073 | -52.35905 | 30 ft | 78 kts | 54° |
| 2026-04-27 18:13 | 4.82253 | -52.35555 | 30 ft | 38 kts | 66° |
| 2026-04-27 18:14 | 4.82346 | -52.35357 | 30 ft | 29 kts | 63° |
| 2026-04-27 18:14 | 4.82428 | -52.35184 | 30 ft | 26 kts | 65° |
| 2026-04-27 18:14 | 4.82499 | -52.35028 | 30 ft | 23 kts | 66° |
| 2026-04-27 18:14 | 4.82557 | -52.34895 | 30 ft | 15 kts | 66° |
| 2026-04-27 18:15 | 4.82559 | -52.34823 | 30 ft | 6 kts | 100° |
| 2026-04-27 18:15 | 4.82562 | -52.34814 | 30 ft | 1 kts | 55° |
| 2026-04-27 18:15 | 4.82587 | -52.34819 | 30 ft | 10 kts | 294° |
| 2026-04-27 18:15 | 4.82558 | -52.34923 | 30 ft | 22 kts | 245° |
| 2026-04-27 18:16 | 4.82474 | -52.35090 | 30 ft | 32 kts | 245° |
| 2026-04-27 18:16 | 4.82371 | -52.35310 | 30 ft | 37 kts | 244° |
| 2026-04-27 18:16 | 4.82265 | -52.35547 | 30 ft | 37 kts | 246° |
| 2026-04-27 18:16 | 4.82173 | -52.35777 | 30 ft | 34 kts | 272° |
| 2026-04-27 18:17 | 4.82215 | -52.35994 | 30 ft | 31 kts | 274° |
| 2026-04-27 18:17 | 4.82153 | -52.36187 | 30 ft | 29 kts | 249° |
| 2026-04-27 18:17 | 4.82228 | -52.36284 | 30 ft | 17 kts | 339° |
| 2026-04-27 18:17 | 4.82256 | -52.36295 | 30 ft | 0 kts | 338° |